createdAt,value
2019-02-23T00:00:07.524Z,1034.89
2019-02-23T00:01:07.506Z,1034.93
2019-02-23T00:02:07.537Z,1034.88
2019-02-23T00:03:07.487Z,1034.89
2019-02-23T00:04:07.479Z,1034.86
2019-02-23T00:05:07.467Z,1034.88
2019-02-23T00:06:07.449Z,1034.89
2019-02-23T00:07:07.443Z,1034.88
2019-02-23T00:08:07.456Z,1034.93
2019-02-23T00:09:07.461Z,1035.00
2019-02-23T00:10:07.549Z,1034.91
2019-02-23T00:11:07.403Z,1034.86
2019-02-23T00:12:07.404Z,1034.91
2019-02-23T00:13:07.482Z,1034.90
2019-02-23T00:14:07.366Z,1034.83
2019-02-23T00:15:07.346Z,1034.86
2019-02-23T00:16:07.335Z,1034.86
2019-02-23T00:17:07.325Z,1034.85
2019-02-23T00:18:07.316Z,1034.84
2019-02-23T00:19:07.326Z,1034.82
2019-02-23T00:20:07.298Z,1034.83
2019-02-23T00:21:07.318Z,1034.81
2019-02-23T00:22:07.285Z,1034.84
2019-02-23T00:23:07.270Z,1034.87
2019-02-23T00:24:07.282Z,1034.87
2019-02-23T00:25:07.265Z,1034.88
2019-02-23T00:26:07.234Z,1034.87
2019-02-23T00:27:07.211Z,1034.87
2019-02-23T00:28:07.208Z,1034.88
2019-02-23T00:29:07.194Z,1034.90
2019-02-23T00:30:07.226Z,1034.88
2019-02-23T00:31:07.164Z,1034.87
2019-02-23T00:32:07.188Z,1034.83
2019-02-23T00:33:07.157Z,1034.89
2019-02-23T00:34:07.148Z,1034.89
2019-02-23T00:35:07.120Z,1034.84
2019-02-23T00:36:07.146Z,1034.89
2019-02-23T00:37:07.111Z,1034.86
2019-02-23T00:38:07.095Z,1034.88
2019-02-23T00:39:07.085Z,1034.91
2019-02-23T00:40:07.212Z,1034.87
2019-02-23T00:41:07.076Z,1034.90
2019-02-23T00:42:07.070Z,1034.87
2019-02-23T00:43:07.119Z,1034.89
2019-02-23T00:44:07.050Z,1034.89
2019-02-23T00:45:07.042Z,1034.89
2019-02-23T00:46:07.002Z,1034.90
2019-02-23T00:47:06.990Z,1034.90
2019-02-23T00:48:06.982Z,1034.85
2019-02-23T00:49:07.000Z,1034.83
2019-02-23T00:50:06.964Z,1034.82
2019-02-23T00:51:06.962Z,1034.84
2019-02-23T00:52:06.942Z,1034.88
2019-02-23T00:53:06.929Z,1034.84
2019-02-23T00:54:06.915Z,1034.87
2019-02-23T00:55:06.937Z,1034.94
2019-02-23T00:56:06.913Z,1034.93
2019-02-23T00:57:06.885Z,1034.88
2019-02-23T00:58:06.869Z,1034.91
2019-02-23T00:59:06.865Z,1034.89
2019-02-23T01:00:06.868Z,1034.95
2019-02-23T01:01:06.834Z,1034.86
2019-02-23T01:02:06.843Z,1034.92
2019-02-23T01:03:06.811Z,1034.94
2019-02-23T01:04:06.802Z,1034.91
2019-02-23T01:05:06.813Z,1034.89
2019-02-23T01:06:06.797Z,1034.87
2019-02-23T01:07:06.767Z,1034.89
2019-02-23T01:08:06.757Z,1034.85
2019-02-23T01:09:06.745Z,1034.89
2019-02-23T01:10:06.741Z,1034.89
2019-02-23T01:11:06.720Z,1034.87
2019-02-23T01:12:06.780Z,1034.87
2019-02-23T01:13:06.725Z,1034.92
2019-02-23T01:14:06.686Z,1034.87
2019-02-23T01:15:06.701Z,1034.88
2019-02-23T01:16:06.672Z,1034.86
2019-02-23T01:17:06.657Z,1034.83
2019-02-23T01:18:06.644Z,1034.83
2019-02-23T01:19:06.628Z,1034.82
2019-02-23T01:20:06.619Z,1034.85
2019-02-23T01:21:06.645Z,1034.87
2019-02-23T01:22:06.621Z,1034.86
2019-02-23T01:23:06.587Z,1034.84
2019-02-23T01:24:06.580Z,1034.85
2019-02-23T01:25:06.556Z,1034.86
2019-02-23T01:26:06.544Z,1034.87
2019-02-23T01:27:06.567Z,1034.90
2019-02-23T01:28:06.532Z,1034.93
2019-02-23T01:29:07.472Z,1034.90
2019-02-23T01:30:06.521Z,1034.85
2019-02-23T01:31:06.494Z,1034.85
2019-02-23T01:32:06.490Z,1034.86
2019-02-23T01:33:06.470Z,1034.89
2019-02-23T01:34:06.504Z,1034.82
2019-02-23T01:35:06.491Z,1034.84
2019-02-23T01:36:06.443Z,1034.86
2019-02-23T01:37:06.508Z,1034.78
2019-02-23T01:38:06.416Z,1034.79
2019-02-23T01:39:06.410Z,1034.78
2019-02-23T01:40:06.966Z,1034.74
2019-02-23T01:41:06.429Z,1034.81
2019-02-23T01:42:06.371Z,1034.78
2019-02-23T01:43:06.360Z,1034.77
2019-02-23T01:44:06.348Z,1034.74
2019-02-23T01:45:06.337Z,1034.78
2019-02-23T01:46:06.386Z,1034.72
2019-02-23T01:47:06.329Z,1034.70
2019-02-23T01:48:06.298Z,1034.72
2019-02-23T01:49:06.293Z,1034.75
2019-02-23T01:50:06.280Z,1034.78
2019-02-23T01:51:06.298Z,1034.80
2019-02-23T01:52:06.253Z,1034.78
2019-02-23T01:53:06.271Z,1034.74
2019-02-23T01:54:06.306Z,1034.79
2019-02-23T01:55:06.225Z,1034.74
2019-02-23T01:56:06.297Z,1034.70
2019-02-23T01:57:06.226Z,1034.67
2019-02-23T01:58:06.206Z,1034.69
2019-02-23T01:59:06.184Z,1034.66
2019-02-23T02:00:06.170Z,1034.66
2019-02-23T02:01:06.160Z,1034.71
2019-02-23T02:02:06.171Z,1034.62
2019-02-23T02:03:06.173Z,1034.59
2019-02-23T02:04:06.162Z,1034.62
2019-02-23T02:05:06.113Z,1034.59
2019-02-23T02:06:06.111Z,1034.65
2019-02-23T02:07:06.124Z,1034.65
2019-02-23T02:08:06.083Z,1034.69
2019-02-23T02:09:06.138Z,1034.67
2019-02-23T02:10:06.078Z,1034.57
2019-02-23T02:11:06.052Z,1034.61
2019-02-23T02:12:06.083Z,1034.60
2019-02-23T02:13:06.025Z,1034.54
2019-02-23T02:14:06.012Z,1034.58
2019-02-23T02:15:06.020Z,1034.59
2019-02-23T02:16:06.008Z,1034.68
2019-02-23T02:17:05.990Z,1034.61
2019-02-23T02:18:05.969Z,1034.60
2019-02-23T02:19:05.990Z,1034.64
2019-02-23T02:20:10.863Z,1034.60
2019-02-23T02:21:06.945Z,1034.61
2019-02-23T02:22:05.932Z,1034.64
2019-02-23T02:23:06.001Z,1034.56
2019-02-23T02:24:05.905Z,1034.65
2019-02-23T02:25:05.911Z,1034.65
2019-02-23T02:26:05.953Z,1034.59
2019-02-23T02:27:05.899Z,1034.57
2019-02-23T02:28:05.867Z,1034.60
2019-02-23T02:29:05.848Z,1034.60
2019-02-23T02:30:05.834Z,1034.56
2019-02-23T02:31:05.851Z,1034.58
2019-02-23T02:32:05.810Z,1034.52
2019-02-23T02:33:05.830Z,1034.58
2019-02-23T02:34:05.787Z,1034.57
2019-02-23T02:35:05.777Z,1034.57
2019-02-23T02:36:05.768Z,1034.61
2019-02-23T02:37:05.760Z,1034.57
2019-02-23T02:38:05.807Z,1034.58
2019-02-23T02:39:05.803Z,1034.58
2019-02-23T02:40:05.758Z,1034.59
2019-02-23T02:41:05.717Z,1034.61
2019-02-23T02:42:05.749Z,1034.63
2019-02-23T02:43:05.687Z,1034.58
2019-02-23T02:44:05.706Z,1034.58
2019-02-23T02:45:05.692Z,1034.58
2019-02-23T02:46:05.660Z,1034.54
2019-02-23T02:47:05.649Z,1034.58
2019-02-23T02:48:05.641Z,1034.57
2019-02-23T02:49:05.625Z,1034.57
2019-02-23T02:50:05.646Z,1034.48
2019-02-23T02:51:05.591Z,1034.52
2019-02-23T02:52:05.589Z,1034.53
2019-02-23T02:53:05.573Z,1034.54
2019-02-23T02:54:05.578Z,1034.58
2019-02-23T02:55:05.550Z,1034.58
2019-02-23T02:56:05.567Z,1034.50
2019-02-23T02:57:05.533Z,1034.55
2019-02-23T02:58:05.525Z,1034.58
2019-02-23T02:59:05.515Z,1034.59
2019-02-23T03:00:05.500Z,1034.63
2019-02-23T03:01:05.512Z,1034.60
2019-02-23T03:02:05.479Z,1034.60
2019-02-23T03:03:05.983Z,1034.59
2019-02-23T03:04:05.459Z,1034.59
2019-02-23T03:05:05.454Z,1034.58
2019-02-23T03:06:05.626Z,1034.60
2019-02-23T03:07:05.453Z,1034.60
2019-02-23T03:08:05.410Z,1034.57
2019-02-23T03:09:05.409Z,1034.55
2019-02-23T03:10:05.396Z,1034.51
2019-02-23T03:11:05.382Z,1034.56
2019-02-23T03:12:05.395Z,1034.61
2019-02-23T03:13:05.385Z,1034.57
2019-02-23T03:14:05.348Z,1034.53
2019-02-23T03:15:05.340Z,1034.52
2019-02-23T03:16:05.336Z,1034.47
2019-02-23T03:17:05.316Z,1034.52
2019-02-23T03:18:05.312Z,1034.49
2019-02-23T03:19:05.309Z,1034.53
2019-02-23T03:20:05.283Z,1034.56
2019-02-23T03:21:05.274Z,1034.54
2019-02-23T03:22:05.263Z,1034.53
2019-02-23T03:23:05.249Z,1034.46
2019-02-23T03:24:05.251Z,1034.55
2019-02-23T03:25:05.294Z,1034.43
2019-02-23T03:26:05.235Z,1034.45
2019-02-23T03:27:05.212Z,1034.41
2019-02-23T03:28:05.195Z,1034.48
2019-02-23T03:29:05.180Z,1034.41
2019-02-23T03:30:05.189Z,1034.45
2019-02-23T03:31:05.192Z,1034.42
2019-02-23T03:32:05.157Z,1034.44
2019-02-23T03:33:05.180Z,1034.48
2019-02-23T03:34:05.126Z,1034.45
2019-02-23T03:35:05.160Z,1034.44
2019-02-23T03:36:05.114Z,1034.44
2019-02-23T03:37:05.092Z,1034.48
2019-02-23T03:38:05.098Z,1034.47
2019-02-23T03:39:05.075Z,1034.54
2019-02-23T03:40:05.061Z,1034.51
2019-02-23T03:41:05.049Z,1034.53
2019-02-23T03:42:05.037Z,1034.53
2019-02-23T03:43:05.089Z,1034.51
2019-02-23T03:44:05.147Z,1034.53
2019-02-23T03:45:05.121Z,1034.56
2019-02-23T03:46:05.158Z,1034.54
2019-02-23T03:47:04.980Z,1034.55
2019-02-23T03:48:04.979Z,1034.55
2019-02-23T03:49:04.967Z,1034.52
2019-02-23T03:50:04.964Z,1034.55
2019-02-23T03:51:04.941Z,1034.53
2019-02-23T03:52:04.941Z,1034.57
2019-02-23T03:53:04.925Z,1034.57
2019-02-23T03:54:04.912Z,1034.56
2019-02-23T03:55:04.927Z,1034.51
2019-02-23T03:56:04.900Z,1034.56
2019-02-23T03:57:04.873Z,1034.49
2019-02-23T03:58:04.858Z,1034.50
2019-02-23T03:59:05.488Z,1034.49
2019-02-23T04:00:04.867Z,1034.56
2019-02-23T04:01:04.832Z,1034.57
2019-02-23T04:02:04.816Z,1034.64
2019-02-23T04:03:04.800Z,1034.56
2019-02-23T04:04:04.791Z,1034.56
2019-02-23T04:05:04.927Z,1034.58
2019-02-23T04:06:04.807Z,1034.57
2019-02-23T04:07:04.851Z,1034.61
2019-02-23T04:08:04.760Z,1034.61
2019-02-23T04:09:04.739Z,1034.65
2019-02-23T04:10:04.746Z,1034.59
2019-02-23T04:11:04.737Z,1034.70
2019-02-23T04:12:04.727Z,1034.65
2019-02-23T04:13:04.694Z,1034.69
2019-02-23T04:14:04.685Z,1034.71
2019-02-23T04:15:04.671Z,1034.70
2019-02-23T04:16:04.685Z,1034.73
2019-02-23T04:17:04.681Z,1034.76
2019-02-23T04:18:04.638Z,1034.71
2019-02-23T04:19:04.634Z,1034.71
2019-02-23T04:20:04.614Z,1034.71
2019-02-23T04:21:04.605Z,1034.80
2019-02-23T04:22:04.596Z,1034.78
2019-02-23T04:23:04.612Z,1034.82
2019-02-23T04:24:04.571Z,1034.84
2019-02-23T04:25:04.584Z,1034.83
2019-02-23T04:26:04.555Z,1034.83
2019-02-23T04:27:04.540Z,1034.82
2019-02-23T04:28:04.555Z,1034.80
2019-02-23T04:29:04.516Z,1034.82
2019-02-23T04:30:04.515Z,1034.75
2019-02-23T04:31:04.515Z,1034.80
2019-02-23T04:32:04.526Z,1034.83
2019-02-23T04:33:04.494Z,1034.87
2019-02-23T04:34:04.464Z,1034.85
2019-02-23T04:35:04.456Z,1034.87
2019-02-23T04:36:04.447Z,1034.84
2019-02-23T04:37:04.431Z,1034.86
2019-02-23T04:38:04.444Z,1034.83
2019-02-23T04:39:04.512Z,1034.81
2019-02-23T04:40:04.415Z,1034.87
2019-02-23T04:41:04.382Z,1034.82
2019-02-23T04:42:04.381Z,1034.85
2019-02-23T04:43:04.358Z,1034.88
2019-02-23T04:44:04.398Z,1034.92
2019-02-23T04:45:04.368Z,1034.95
2019-02-23T04:46:04.335Z,1034.91
2019-02-23T04:47:04.394Z,1034.95
2019-02-23T04:48:04.335Z,1034.89
2019-02-23T04:49:04.344Z,1034.92
2019-02-23T04:50:04.282Z,1034.92
2019-02-23T04:51:13.904Z,1034.94
2019-02-23T04:52:05.257Z,1034.98
2019-02-23T04:53:04.258Z,1034.95
2019-02-23T04:54:04.245Z,1034.91
2019-02-23T04:55:04.257Z,1034.97
2019-02-23T04:56:04.215Z,1034.97
2019-02-23T04:57:04.230Z,1035.00
2019-02-23T04:58:04.196Z,1034.94
2019-02-23T04:59:04.180Z,1034.96
2019-02-23T05:00:04.175Z,1034.94
2019-02-23T05:01:04.161Z,1034.93
2019-02-23T05:02:04.148Z,1034.98
2019-02-23T05:03:04.160Z,1034.90
2019-02-23T05:04:04.132Z,1034.90
2019-02-23T05:05:04.150Z,1034.95
2019-02-23T05:06:04.115Z,1034.97
2019-02-23T05:07:04.098Z,1035.02
2019-02-23T05:08:04.099Z,1035.04
2019-02-23T05:09:04.070Z,1035.07
2019-02-23T05:10:04.102Z,1035.03
2019-02-23T05:11:04.059Z,1035.03
2019-02-23T05:12:04.043Z,1035.07
2019-02-23T05:13:04.044Z,1035.05
2019-02-23T05:14:04.026Z,1035.08
2019-02-23T05:15:04.067Z,1035.08
2019-02-23T05:16:04.014Z,1035.08
2019-02-23T05:17:03.985Z,1035.11
2019-02-23T05:18:03.973Z,1035.14
2019-02-23T05:19:04.568Z,1035.09
2019-02-23T05:20:03.951Z,1035.08
2019-02-23T05:21:03.965Z,1035.07
2019-02-23T05:22:03.946Z,1035.14
2019-02-23T05:23:03.936Z,1035.13
2019-02-23T05:24:03.916Z,1035.13
2019-02-23T05:25:03.895Z,1035.05
2019-02-23T05:26:03.885Z,1035.14
2019-02-23T05:28:05.562Z,1035.09
2019-02-23T05:29:03.847Z,1035.13
2019-02-23T05:30:03.842Z,1035.14
2019-02-23T05:31:03.828Z,1035.10
2019-02-23T05:32:03.819Z,1035.12
2019-02-23T05:33:03.834Z,1035.11
2019-02-23T05:34:03.844Z,1035.15
2019-02-23T05:35:03.811Z,1035.13
2019-02-23T05:36:03.774Z,1035.11
2019-02-23T05:37:03.841Z,1035.11
2019-02-23T05:38:03.763Z,1035.14
2019-02-23T05:39:03.817Z,1035.18
2019-02-23T05:40:03.875Z,1035.18
2019-02-23T05:41:03.728Z,1035.22
2019-02-23T05:42:03.710Z,1035.22
2019-02-23T05:43:03.698Z,1035.20
2019-02-23T05:44:03.737Z,1035.19
2019-02-23T05:45:03.730Z,1035.23
2019-02-23T05:46:03.703Z,1035.34
2019-02-23T05:47:03.651Z,1035.24
2019-02-23T05:48:03.649Z,1035.30
2019-02-23T05:49:03.647Z,1035.31
2019-02-23T05:50:03.616Z,1035.35
2019-02-23T05:51:03.637Z,1035.37
2019-02-23T05:52:03.603Z,1035.31
2019-02-23T05:53:03.588Z,1035.33
2019-02-23T05:54:03.575Z,1035.34
2019-02-23T05:55:03.571Z,1035.29
2019-02-23T05:56:03.576Z,1035.29
2019-02-23T05:57:03.542Z,1035.30
2019-02-23T05:58:03.535Z,1035.35
2019-02-23T05:59:03.533Z,1035.37
2019-02-23T06:00:03.524Z,1035.39
2019-02-23T06:01:03.501Z,1035.43
2019-02-23T06:02:03.513Z,1035.47
2019-02-23T06:03:03.480Z,1035.46
2019-02-23T06:04:03.672Z,1035.48
2019-02-23T06:05:03.455Z,1035.45
2019-02-23T06:06:03.472Z,1035.52
2019-02-23T06:07:03.499Z,1035.49
2019-02-23T06:08:03.492Z,1035.55
2019-02-23T06:09:03.433Z,1035.54
2019-02-23T06:10:03.395Z,1035.52
2019-02-23T06:11:03.392Z,1035.50
2019-02-23T06:12:03.409Z,1035.46
2019-02-23T06:13:03.428Z,1035.52
2019-02-23T06:14:03.398Z,1035.53
2019-02-23T06:15:03.350Z,1035.57
2019-02-23T06:16:03.345Z,1035.49
2019-02-23T06:17:04.248Z,1035.58
2019-02-23T06:18:03.347Z,1035.54
2019-02-23T06:19:03.306Z,1035.55
2019-02-23T06:20:03.351Z,1035.59
2019-02-23T06:21:03.336Z,1035.61
2019-02-23T06:22:03.291Z,1035.57
2019-02-23T06:23:03.253Z,1035.59
2019-02-23T06:24:03.277Z,1035.56
2019-02-23T06:25:03.281Z,1035.60
2019-02-23T06:26:03.320Z,1035.52
2019-02-23T06:27:03.221Z,1035.51
2019-02-23T06:28:03.329Z,1035.51
2019-02-23T06:29:03.191Z,1035.55
2019-02-23T06:30:03.196Z,1035.55
2019-02-23T06:31:03.263Z,1035.57
2019-02-23T06:32:03.156Z,1035.56
2019-02-23T06:33:03.153Z,1035.57
2019-02-23T06:34:14.998Z,1035.58
2019-02-23T06:35:04.155Z,1035.61
2019-02-23T06:36:03.220Z,1035.68
2019-02-23T06:37:04.004Z,1035.65
2019-02-23T06:38:04.429Z,1035.62
2019-02-23T06:39:03.082Z,1035.65
2019-02-23T06:40:03.069Z,1035.61
2019-02-23T06:41:03.084Z,1035.63
2019-02-23T06:42:03.049Z,1035.60
2019-02-23T06:43:03.035Z,1035.65
2019-02-23T06:44:03.044Z,1035.62
2019-02-23T06:45:03.018Z,1035.65
2019-02-23T06:46:02.999Z,1035.56
2019-02-23T06:47:03.201Z,1035.64
2019-02-23T06:48:02.988Z,1035.64
2019-02-23T06:49:02.998Z,1035.66
2019-02-23T06:50:03.516Z,1035.65
2019-02-23T06:51:02.950Z,1035.67
2019-02-23T06:52:04.582Z,1035.61
2019-02-23T06:53:02.933Z,1035.71
2019-02-23T06:54:02.920Z,1035.60
2019-02-23T06:55:02.929Z,1035.65
2019-02-23T06:56:02.909Z,1035.63
2019-02-23T06:57:02.881Z,1035.65
2019-02-23T06:58:02.877Z,1035.66
2019-02-23T06:59:02.941Z,1035.63
2019-02-23T07:00:02.878Z,1035.62
2019-02-23T07:01:02.838Z,1035.68
2019-02-23T07:02:02.826Z,1035.65
2019-02-23T07:03:02.816Z,1035.68
2019-02-23T07:04:02.814Z,1035.68
2019-02-23T07:05:02.794Z,1035.70
2019-02-23T07:06:02.828Z,1035.66
2019-02-23T07:07:02.777Z,1035.68
2019-02-23T07:08:02.760Z,1035.69
2019-02-23T07:09:02.753Z,1035.70
2019-02-23T07:10:02.743Z,1035.74
2019-02-23T07:11:02.768Z,1035.68
2019-02-23T07:12:02.719Z,1035.68
2019-02-23T07:13:02.713Z,1035.69
2019-02-23T07:14:02.722Z,1035.65
2019-02-23T07:15:02.682Z,1035.71
2019-02-23T07:16:02.685Z,1035.68
2019-02-23T07:17:05.050Z,1035.72
2019-02-23T07:18:02.649Z,1035.69
2019-02-23T07:19:02.658Z,1035.70
2019-02-23T07:20:02.771Z,1035.77
2019-02-23T07:21:02.630Z,1035.66
2019-02-23T07:22:02.602Z,1035.70
2019-02-23T07:23:02.600Z,1035.69
2019-02-23T07:24:02.615Z,1035.67
2019-02-23T07:25:02.580Z,1035.66
2019-02-23T07:26:02.561Z,1035.74
2019-02-23T07:27:02.591Z,1035.70
2019-02-23T07:28:02.585Z,1035.67
2019-02-23T07:29:02.552Z,1035.64
2019-02-23T07:30:02.544Z,1035.67
2019-02-23T07:31:02.536Z,1035.65
2019-02-23T07:32:02.521Z,1035.70
2019-02-23T07:33:03.521Z,1035.58
2019-02-23T07:34:02.472Z,1035.68
2019-02-23T07:35:02.462Z,1035.73
2019-02-23T07:36:03.091Z,1035.72
2019-02-23T07:37:02.472Z,1035.72
2019-02-23T07:38:02.430Z,1035.71
2019-02-23T07:39:02.415Z,1035.73
2019-02-23T07:40:02.435Z,1035.68
2019-02-23T07:41:02.424Z,1035.67
2019-02-23T07:42:02.393Z,1035.68
2019-02-23T07:43:02.400Z,1035.69
2019-02-23T07:44:03.435Z,1035.69
2019-02-23T07:45:02.349Z,1035.65
2019-02-23T07:46:02.366Z,1035.65
2019-02-23T07:47:02.362Z,1035.66
2019-02-23T07:48:02.360Z,1035.63
2019-02-23T07:49:02.317Z,1035.59
2019-02-23T07:50:02.315Z,1035.62
2019-02-23T07:51:02.292Z,1035.62
2019-02-23T07:52:02.275Z,1035.57
2019-02-23T07:53:02.297Z,1035.53
2019-02-23T07:54:02.269Z,1035.54
2019-02-23T07:55:02.260Z,1035.52
2019-02-23T07:56:02.239Z,1035.47
2019-02-23T07:57:02.218Z,1035.44
2019-02-23T07:58:02.257Z,1035.45
2019-02-23T07:59:02.211Z,1035.48
2019-02-23T08:00:02.195Z,1035.48
2019-02-23T08:01:02.221Z,1035.44
2019-02-23T08:02:02.175Z,1035.42
2019-02-23T08:03:02.201Z,1035.44
2019-02-23T08:04:02.144Z,1035.41
2019-02-23T08:05:02.128Z,1035.42
2019-02-23T08:06:02.130Z,1035.39
2019-02-23T08:07:02.134Z,1035.46
2019-02-23T08:08:02.123Z,1035.45
2019-02-23T08:09:02.086Z,1035.41
2019-02-23T08:10:02.100Z,1035.41
2019-02-23T08:11:02.066Z,1035.49
2019-02-23T08:12:02.077Z,1035.43
2019-02-23T08:13:02.086Z,1035.47
2019-02-23T08:14:02.060Z,1035.48
2019-02-23T08:15:02.043Z,1035.49
2019-02-23T08:16:02.008Z,1035.51
2019-02-23T08:17:02.007Z,1035.50
2019-02-23T08:18:01.989Z,1035.52
2019-02-23T08:19:01.975Z,1035.53
2019-02-23T08:20:01.986Z,1035.48
2019-02-23T08:21:02.009Z,1035.51
2019-02-23T08:22:01.939Z,1035.52
2019-02-23T08:23:01.926Z,1035.53
2019-02-23T08:24:01.916Z,1035.53
2019-02-23T08:25:01.908Z,1035.47
2019-02-23T08:26:01.920Z,1035.49
2019-02-23T08:27:01.946Z,1035.56
2019-02-23T08:28:01.901Z,1035.47
2019-02-23T08:29:01.874Z,1035.48
2019-02-23T08:30:01.915Z,1035.46
2019-02-23T08:31:01.862Z,1035.51
2019-02-23T08:32:01.837Z,1035.61
2019-02-23T08:33:01.859Z,1035.59
2019-02-23T08:34:01.834Z,1035.58
2019-02-23T08:35:01.801Z,1035.56
2019-02-23T08:36:01.786Z,1035.61
2019-02-23T08:37:01.809Z,1035.59
2019-02-23T08:38:01.809Z,1035.58
2019-02-23T08:39:01.758Z,1035.52
2019-02-23T08:40:01.746Z,1035.65
2019-02-23T08:41:01.738Z,1035.57
2019-02-23T08:42:01.730Z,1035.61
2019-02-23T08:43:02.141Z,1035.63
2019-02-23T08:44:01.925Z,1035.59
2019-02-23T08:45:01.719Z,1035.65
2019-02-23T08:46:01.689Z,1035.57
2019-02-23T08:47:01.670Z,1035.55
2019-02-23T08:48:01.676Z,1035.47
2019-02-23T08:49:01.709Z,1035.54
2019-02-23T08:50:01.628Z,1035.50
2019-02-23T08:51:01.624Z,1035.55
2019-02-23T08:52:01.631Z,1035.50
2019-02-23T08:53:01.618Z,1035.51
2019-02-23T08:54:01.586Z,1035.56
2019-02-23T08:55:01.589Z,1035.56
2019-02-23T08:56:01.566Z,1035.52
2019-02-23T08:57:01.574Z,1035.58
2019-02-23T08:58:01.545Z,1035.62
2019-02-23T08:59:01.551Z,1035.60
2019-02-23T09:00:01.641Z,1035.58
2019-02-23T09:01:01.518Z,1035.61
2019-02-23T09:02:01.494Z,1035.57
2019-02-23T09:03:01.586Z,1035.54
2019-02-23T09:04:01.481Z,1035.55
2019-02-23T09:05:01.464Z,1035.60
2019-02-23T09:06:01.463Z,1035.56
2019-02-23T09:07:02.066Z,1035.62
2019-02-23T09:08:01.434Z,1035.62
2019-02-23T09:09:01.448Z,1035.56
2019-02-23T09:10:01.412Z,1035.58
2019-02-23T09:11:01.405Z,1035.55
2019-02-23T09:12:01.398Z,1035.53
2019-02-23T09:13:01.378Z,1035.47
2019-02-23T09:14:01.365Z,1035.40
2019-02-23T09:15:01.392Z,1035.40
2019-02-23T09:16:01.343Z,1035.39
2019-02-23T09:17:01.404Z,1035.41
2019-02-23T09:18:01.343Z,1035.39
2019-02-23T09:19:01.509Z,1035.46
2019-02-23T09:20:01.314Z,1035.40
2019-02-23T09:21:01.313Z,1035.38
2019-02-23T09:22:01.305Z,1035.45
2019-02-23T09:23:01.283Z,1035.50
2019-02-23T09:24:01.255Z,1035.48
2019-02-23T09:25:01.251Z,1035.45
2019-02-23T09:26:01.254Z,1035.42
2019-02-23T09:27:01.261Z,1035.42
2019-02-23T09:28:01.231Z,1035.37
2019-02-23T09:29:01.203Z,1035.44
2019-02-23T09:30:01.191Z,1035.42
2019-02-23T09:31:03.543Z,1035.44
2019-02-23T09:32:01.166Z,1035.41
2019-02-23T09:33:01.165Z,1035.44
2019-02-23T09:34:01.155Z,1035.47
2019-02-23T09:35:01.271Z,1035.46
2019-02-23T09:36:01.153Z,1035.45
2019-02-23T09:37:01.151Z,1035.51
2019-02-23T09:38:01.113Z,1035.50
2019-02-23T09:39:01.111Z,1035.53
2019-02-23T09:40:01.088Z,1035.56
2019-02-23T09:41:01.080Z,1035.66
2019-02-23T09:42:07.412Z,1035.64
2019-02-23T09:43:02.071Z,1035.62
2019-02-23T09:44:01.032Z,1035.65
2019-02-23T09:45:01.022Z,1035.73
2019-02-23T09:46:01.035Z,1035.74
2019-02-23T09:47:01.012Z,1035.77
2019-02-23T09:48:00.995Z,1035.70
2019-02-23T09:49:01.011Z,1035.66
2019-02-23T09:50:00.969Z,1035.64
2019-02-23T09:51:00.958Z,1035.57
2019-02-23T09:52:00.952Z,1035.53
2019-02-23T09:53:10.856Z,1035.51
2019-02-23T09:54:02.082Z,1035.50
2019-02-23T09:55:00.911Z,1035.46
2019-02-23T09:56:00.915Z,1035.43
2019-02-23T09:57:00.888Z,1035.40
2019-02-23T09:58:00.874Z,1035.38
2019-02-23T09:59:00.949Z,1035.31
2019-02-23T10:00:00.884Z,1035.31
2019-02-23T10:01:00.837Z,1035.32
2019-02-23T10:02:00.923Z,1035.30
2019-02-23T10:03:00.824Z,1035.26
2019-02-23T10:04:00.800Z,1035.33
2019-02-23T10:05:00.800Z,1035.27
2019-02-23T10:06:00.806Z,1035.25
2019-02-23T10:07:00.784Z,1035.22
2019-02-23T10:08:00.758Z,1035.25
2019-02-23T10:09:00.763Z,1035.23
2019-02-23T10:10:00.782Z,1035.29
2019-02-23T10:11:00.731Z,1035.27
2019-02-23T10:12:00.731Z,1035.23
2019-02-23T10:13:00.705Z,1035.25
2019-02-23T10:14:00.694Z,1035.22
2019-02-23T10:15:01.533Z,1035.20
2019-02-23T10:16:00.696Z,1035.16
2019-02-23T10:17:00.685Z,1035.06
2019-02-23T10:18:00.780Z,1035.13
2019-02-23T10:19:00.637Z,1035.12
2019-02-23T10:20:00.648Z,1035.08
2019-02-23T10:21:00.613Z,1035.13
2019-02-23T10:22:00.603Z,1035.09
2019-02-23T10:23:00.597Z,1035.20
2019-02-23T10:24:00.587Z,1035.12
2019-02-23T10:25:00.583Z,1035.14
2019-02-23T10:26:00.576Z,1035.13
2019-02-23T10:27:00.547Z,1035.12
2019-02-23T10:28:00.537Z,1035.15
2019-02-23T10:29:00.526Z,1035.16
2019-02-23T10:30:00.520Z,1035.07
2019-02-23T10:31:00.509Z,1035.16
2019-02-23T10:32:00.517Z,1035.11
2019-02-23T10:33:00.509Z,1035.10
2019-02-23T10:34:00.489Z,1035.12
2019-02-23T10:35:00.457Z,1035.17
2019-02-23T10:36:00.460Z,1035.15
2019-02-23T10:37:00.436Z,1035.13
2019-02-23T10:38:00.451Z,1035.05
2019-02-23T10:39:01.124Z,1035.09
2019-02-23T10:40:00.481Z,1035.16
2019-02-23T10:41:00.486Z,1035.12
2019-02-23T10:42:01.050Z,1035.08
2019-02-23T10:43:00.428Z,1035.13
2019-02-23T10:44:00.366Z,1035.12
2019-02-23T10:45:01.047Z,1035.19
2019-02-23T10:46:00.338Z,1035.18
2019-02-23T10:47:00.329Z,1035.11
2019-02-23T10:48:00.323Z,1035.10
2019-02-23T10:49:00.329Z,1035.12
2019-02-23T10:50:00.402Z,1035.14
2019-02-23T10:51:00.283Z,1035.10
2019-02-23T10:52:00.279Z,1035.04
2019-02-23T10:53:00.261Z,1035.07
2019-02-23T10:54:00.286Z,1035.05
2019-02-23T10:55:00.455Z,1035.00
2019-02-23T10:56:00.241Z,1035.01
2019-02-23T10:57:00.217Z,1035.04
2019-02-23T10:58:00.323Z,1034.94
2019-02-23T10:59:00.198Z,1034.95
2019-02-23T11:00:00.229Z,1034.94
2019-02-23T11:01:00.171Z,1035.02
2019-02-23T11:02:00.161Z,1034.94
2019-02-23T11:03:00.146Z,1034.99
2019-02-23T11:04:00.141Z,1034.95
2019-02-23T11:05:00.299Z,1034.92
2019-02-23T11:06:00.140Z,1034.84
2019-02-23T11:07:00.104Z,1034.83
2019-02-23T11:08:00.105Z,1034.88
2019-02-23T11:09:00.090Z,1034.80
2019-02-23T11:10:00.100Z,1034.79
2019-02-23T11:11:00.114Z,1034.86
2019-02-23T11:12:00.046Z,1034.77
2019-02-23T11:13:00.043Z,1034.74
2019-02-23T11:14:00.044Z,1034.73
2019-02-23T11:15:00.024Z,1034.74
2019-02-23T11:16:00.015Z,1034.67
2019-02-23T11:17:00.025Z,1034.74
2019-02-23T11:18:00.001Z,1034.70
2019-02-23T11:18:59.968Z,1034.67
2019-02-23T11:19:59.958Z,1034.65
2019-02-23T11:20:59.944Z,1034.61
2019-02-23T11:21:59.955Z,1034.59
2019-02-23T11:22:59.964Z,1034.56
2019-02-23T11:23:59.937Z,1034.48
2019-02-23T11:24:59.905Z,1034.48
2019-02-23T11:25:59.964Z,1034.47
2019-02-23T11:26:59.882Z,1034.42
2019-02-23T11:27:59.891Z,1034.44
2019-02-23T11:28:59.865Z,1034.39
2019-02-23T11:29:59.853Z,1034.37
2019-02-23T11:30:59.842Z,1034.41
2019-02-23T11:31:59.820Z,1034.28
2019-02-23T11:32:59.848Z,1034.32
2019-02-23T11:33:59.803Z,1034.40
2019-02-23T11:34:59.952Z,1034.39
2019-02-23T11:35:59.809Z,1034.37
2019-02-23T11:36:59.772Z,1034.36
2019-02-23T11:37:59.813Z,1034.37
2019-02-23T11:38:59.770Z,1034.32
2019-02-23T11:39:59.770Z,1034.32
2019-02-23T11:40:59.727Z,1034.26
2019-02-23T11:41:59.740Z,1034.22
2019-02-23T11:42:59.712Z,1034.31
2019-02-23T11:43:59.696Z,1034.29
2019-02-23T11:44:59.675Z,1034.25
2019-02-23T11:45:59.720Z,1034.20
2019-02-23T11:47:00.334Z,1034.26
2019-02-23T11:47:59.643Z,1034.21
2019-02-23T11:48:59.642Z,1034.20
2019-02-23T11:49:59.623Z,1034.22
2019-02-23T11:50:59.610Z,1034.18
2019-02-23T11:51:59.678Z,1034.24
2019-02-23T11:52:59.592Z,1034.20
2019-02-23T11:53:59.689Z,1034.20
2019-02-23T11:54:59.568Z,1034.18
2019-02-23T11:55:59.586Z,1034.15
2019-02-23T11:56:59.682Z,1034.17
2019-02-23T11:57:59.534Z,1034.23
2019-02-23T11:58:59.521Z,1034.17
2019-02-23T11:59:59.516Z,1034.19
2019-02-23T12:00:59.512Z,1034.16
2019-02-23T12:01:59.558Z,1034.16
2019-02-23T12:02:59.482Z,1034.15
2019-02-23T12:03:59.473Z,1034.19
2019-02-23T12:04:59.540Z,1034.16
2019-02-23T12:05:59.442Z,1034.13